createdAt,value
2022-12-06T00:00:36.175Z,8.80
2022-12-06T00:01:44.444Z,8.80
2022-12-06T00:02:46.330Z,8.80
2022-12-06T00:03:53.344Z,8.80
2022-12-06T00:04:55.100Z,8.80
2022-12-06T00:06:05.389Z,8.80
2022-12-06T00:07:09.738Z,8.80
2022-12-06T00:08:11.843Z,8.80
2022-12-06T00:09:28.725Z,9.00
2022-12-06T00:10:30.587Z,8.90
2022-12-06T00:11:36.895Z,8.80
2022-12-06T00:12:38.723Z,8.80
2022-12-06T00:13:41.846Z,8.80
2022-12-06T00:14:43.751Z,8.70
2022-12-06T00:15:45.489Z,8.50
2022-12-06T00:16:50.142Z,8.80
2022-12-06T00:17:52.040Z,8.80
2022-12-06T00:18:54.430Z,8.80
2022-12-06T00:19:57.644Z,8.80
2022-12-06T00:21:09.487Z,8.80
2022-12-06T00:22:21.366Z,8.80
2022-12-06T00:23:25.561Z,8.80
2022-12-06T00:24:30.581Z,8.80
2022-12-06T00:25:35.642Z,8.80
2022-12-06T00:26:39.569Z,8.70
2022-12-06T00:27:41.252Z,8.90
2022-12-06T00:28:43.400Z,8.70
2022-12-06T00:29:45.315Z,8.70
2022-12-06T00:30:47.252Z,8.80
2022-12-06T00:31:50.276Z,8.90
2022-12-06T00:32:52.324Z,8.80
2022-12-06T00:33:54.762Z,8.70
2022-12-06T00:34:56.551Z,8.70
2022-12-06T00:36:00.252Z,8.90
2022-12-06T00:37:02.111Z,8.90
2022-12-06T00:38:04.031Z,8.70
2022-12-06T00:39:14.900Z,8.90
2022-12-06T00:40:17.071Z,8.70
2022-12-06T00:41:23.805Z,8.70
2022-12-06T00:42:25.640Z,8.80
2022-12-06T00:43:28.082Z,8.70
2022-12-06T00:44:29.810Z,8.70
2022-12-06T00:45:35.278Z,8.80
2022-12-06T00:46:38.415Z,8.70
2022-12-06T00:47:40.374Z,8.70
2022-12-06T00:48:42.241Z,8.70
2022-12-06T00:49:44.171Z,8.70
2022-12-06T00:50:45.976Z,8.70
2022-12-06T00:51:47.788Z,8.90
2022-12-06T00:52:49.847Z,8.70
2022-12-06T00:53:51.795Z,8.70
2022-12-06T00:54:53.549Z,8.70
2022-12-06T00:55:55.645Z,8.70
2022-12-06T00:56:57.442Z,8.70
2022-12-06T00:57:59.279Z,8.70
2022-12-06T00:59:01.347Z,8.70
2022-12-06T01:00:05.576Z,8.90
2022-12-06T01:01:16.022Z,8.70
2022-12-06T01:02:18.063Z,8.60
2022-12-06T01:03:20.438Z,8.60
2022-12-06T01:04:22.280Z,8.60
2022-12-06T01:05:24.736Z,8.60
2022-12-06T01:06:29.504Z,8.60
2022-12-06T01:07:32.419Z,8.60
2022-12-06T01:08:35.175Z,8.60
2022-12-06T01:09:37.099Z,8.60
2022-12-06T01:10:39.656Z,8.60
2022-12-06T01:11:41.392Z,8.60
2022-12-06T01:12:43.304Z,8.60
2022-12-06T01:13:46.474Z,8.60
2022-12-06T01:14:48.211Z,8.60
2022-12-06T01:15:50.519Z,8.60
2022-12-06T01:16:52.572Z,8.60
2022-12-06T01:17:54.656Z,8.60
2022-12-06T01:18:59.745Z,8.60
2022-12-06T01:20:02.020Z,8.60
2022-12-06T01:22:07.077Z,8.60
2022-12-06T01:23:08.989Z,8.60
2022-12-06T01:24:11.888Z,8.60
2022-12-06T01:25:14.142Z,8.60
2022-12-06T01:26:26.895Z,8.60
2022-12-06T01:27:28.627Z,8.60
2022-12-06T01:28:31.822Z,8.50
2022-12-06T01:29:33.928Z,8.50
2022-12-06T01:30:37.928Z,8.50
2022-12-06T01:31:39.845Z,8.50
2022-12-06T01:32:41.759Z,8.50
2022-12-06T01:33:44.144Z,8.50
2022-12-06T01:34:45.975Z,8.50
2022-12-06T01:35:47.771Z,8.50
2022-12-06T01:36:50.048Z,8.50
2022-12-06T01:37:51.835Z,8.50
2022-12-06T01:38:56.754Z,8.60
2022-12-06T01:39:58.833Z,8.50
2022-12-06T01:41:00.983Z,8.50
2022-12-06T01:42:02.776Z,8.50
2022-12-06T01:43:04.598Z,8.50
2022-12-06T01:44:07.326Z,8.50
2022-12-06T01:45:12.913Z,8.50
2022-12-06T01:46:21.752Z,8.50
2022-12-06T01:47:26.181Z,8.40
2022-12-06T01:48:28.171Z,8.40
2022-12-06T01:49:34.853Z,8.40
2022-12-06T01:50:40.298Z,8.40
2022-12-06T01:51:48.480Z,8.40
2022-12-06T01:52:55.879Z,8.40
2022-12-06T01:54:00.686Z,8.40
2022-12-06T01:55:07.891Z,8.40
2022-12-06T01:56:10.304Z,8.40
2022-12-06T01:57:16.012Z,8.40
2022-12-06T01:58:22.359Z,8.40
2022-12-06T01:59:25.257Z,8.30
2022-12-06T02:00:27.408Z,8.50
2022-12-06T02:01:30.746Z,8.40
2022-12-06T02:02:33.090Z,8.40
2022-12-06T02:03:36.928Z,8.30
2022-12-06T02:04:40.120Z,8.30
2022-12-06T02:05:42.381Z,8.30
2022-12-06T02:06:44.809Z,8.20
2022-12-06T02:07:47.358Z,8.20
2022-12-06T02:08:50.807Z,8.20
2022-12-06T02:09:52.834Z,8.20
2022-12-06T02:10:57.212Z,8.20
2022-12-06T02:11:59.040Z,8.20
2022-12-06T02:13:00.921Z,8.20
2022-12-06T02:14:05.627Z,8.20
2022-12-06T02:15:08.008Z,8.20
2022-12-06T02:16:12.310Z,8.20
2022-12-06T02:17:34.990Z,8.20
2022-12-06T02:19:14.534Z,8.20
2022-12-06T02:20:57.537Z,8.20
2022-12-06T02:22:28.071Z,8.20
2022-12-06T02:23:54.559Z,8.20
2022-12-06T02:25:17.251Z,8.20
2022-12-06T02:26:47.927Z,8.20
2022-12-06T02:28:16.372Z,8.10
2022-12-06T02:29:29.617Z,8.10
2022-12-06T02:30:56.108Z,8.10
2022-12-06T02:32:15.925Z,8.10
2022-12-06T02:33:31.101Z,8.10
2022-12-06T02:34:40.809Z,8.10
2022-12-06T02:35:55.062Z,8.10
2022-12-06T02:37:09.472Z,8.10
2022-12-06T02:38:15.793Z,8.10
2022-12-06T02:39:35.548Z,8.10
2022-12-06T02:40:54.933Z,8.10
2022-12-06T02:42:16.748Z,8.10
2022-12-06T02:43:23.624Z,8.10
2022-12-06T02:44:39.876Z,8.10
2022-12-06T02:45:56.190Z,8.10
2022-12-06T02:47:00.041Z,8.10
2022-12-06T02:48:05.078Z,8.10
2022-12-06T02:49:09.553Z,8.10
2022-12-06T02:50:17.538Z,8.10
2022-12-06T02:51:21.077Z,8.00
2022-12-06T02:52:27.838Z,8.00
2022-12-06T02:53:33.098Z,8.00
2022-12-06T02:54:34.903Z,8.00
2022-12-06T02:55:37.724Z,8.00
2022-12-06T02:56:39.536Z,8.10
2022-12-06T02:57:48.271Z,8.10
2022-12-06T02:58:50.579Z,8.10
2022-12-06T02:59:54.891Z,8.10
2022-12-06T03:00:59.457Z,8.10
2022-12-06T03:02:04.594Z,8.10
2022-12-06T03:03:30.569Z,8.20
2022-12-06T03:04:55.365Z,8.20
2022-12-06T03:06:11.995Z,8.20
2022-12-06T03:07:34.999Z,8.20
2022-12-06T03:08:48.150Z,8.20
2022-12-06T03:10:04.621Z,8.20
2022-12-06T03:11:06.914Z,8.20
2022-12-06T03:12:16.667Z,8.20
2022-12-06T03:13:28.977Z,8.20
2022-12-06T03:14:59.906Z,8.20
2022-12-06T03:16:15.747Z,8.20
2022-12-06T03:17:29.334Z,8.20
2022-12-06T03:19:00.945Z,8.20
2022-12-06T03:20:19.272Z,8.20
2022-12-06T03:21:32.504Z,8.20
2022-12-06T03:22:40.124Z,8.20
2022-12-06T03:23:48.207Z,8.20
2022-12-06T03:24:51.269Z,8.30
2022-12-06T03:25:55.622Z,8.30
2022-12-06T03:27:01.435Z,8.30
2022-12-06T03:28:07.267Z,8.30
2022-12-06T03:29:10.952Z,8.30
2022-12-06T03:30:14.997Z,8.30
2022-12-06T03:31:16.966Z,8.30
2022-12-06T03:32:23.357Z,8.30
2022-12-06T03:33:27.988Z,8.30
2022-12-06T03:34:43.025Z,8.30
2022-12-06T03:35:46.877Z,8.40
2022-12-06T03:36:50.972Z,8.40
2022-12-06T03:37:59.758Z,8.40
2022-12-06T03:39:04.663Z,8.40
2022-12-06T03:40:32.959Z,8.40
2022-12-06T03:41:48.579Z,8.40
2022-12-06T03:42:51.215Z,8.40
2022-12-06T03:43:57.551Z,8.30
2022-12-06T03:45:00.703Z,8.30
2022-12-06T03:46:08.927Z,8.30
2022-12-06T03:47:20.076Z,8.30
2022-12-06T03:48:25.375Z,8.30
2022-12-06T03:49:35.347Z,8.50
2022-12-06T03:50:58.198Z,8.30
2022-12-06T03:52:00.563Z,8.30
2022-12-06T03:53:02.951Z,8.30
2022-12-06T03:54:08.226Z,8.30
2022-12-06T03:55:11.305Z,8.30
2022-12-06T03:56:13.345Z,8.30
2022-12-06T03:57:17.079Z,8.30
2022-12-06T03:58:21.163Z,8.30
2022-12-06T03:59:22.977Z,8.30
2022-12-06T04:00:24.865Z,8.30
2022-12-06T04:01:26.684Z,8.30
2022-12-06T04:02:28.767Z,8.30
2022-12-06T04:03:31.137Z,8.30
2022-12-06T04:04:33.185Z,8.30
2022-12-06T04:05:37.211Z,8.30
2022-12-06T04:06:39.068Z,8.30
2022-12-06T04:07:41.138Z,8.30
2022-12-06T04:08:44.344Z,8.30
2022-12-06T04:10:03.610Z,8.30
2022-12-06T04:11:07.198Z,8.30
2022-12-06T04:12:28.882Z,8.30
2022-12-06T04:13:30.996Z,8.30
2022-12-06T04:14:39.332Z,8.30
2022-12-06T04:15:41.227Z,8.30
2022-12-06T04:17:02.072Z,8.30
2022-12-06T04:18:11.580Z,8.20
2022-12-06T04:19:13.316Z,8.20
2022-12-06T04:20:15.379Z,8.20
2022-12-06T04:23:05.783Z,8.20
2022-12-06T04:24:07.831Z,8.20
2022-12-06T04:25:10.155Z,8.30
2022-12-06T04:26:15.150Z,8.20
2022-12-06T04:27:35.369Z,8.20
2022-12-06T04:28:55.632Z,8.20
2022-12-06T04:30:16.113Z,8.20
2022-12-06T04:31:37.100Z,8.20
2022-12-06T04:32:57.491Z,8.20
2022-12-06T04:34:17.973Z,8.20
2022-12-06T04:35:38.469Z,8.20
2022-12-06T04:36:59.238Z,8.20
2022-12-06T04:38:22.187Z,8.10
2022-12-06T04:39:25.268Z,8.10
2022-12-06T04:40:27.913Z,8.20
2022-12-06T04:41:48.703Z,8.20
2022-12-06T04:43:09.145Z,8.20
2022-12-06T04:44:11.026Z,8.20
2022-12-06T04:45:13.583Z,8.20
2022-12-06T04:46:15.919Z,8.20
2022-12-06T04:47:17.802Z,8.20
2022-12-06T04:48:21.991Z,8.20
2022-12-06T04:49:26.441Z,8.20
2022-12-06T04:50:28.348Z,8.20
2022-12-06T04:51:30.165Z,8.20
2022-12-06T04:52:35.641Z,8.20
2022-12-06T04:53:38.095Z,8.20
2022-12-06T04:54:40.687Z,8.20
2022-12-06T04:55:49.510Z,8.20
2022-12-06T04:56:51.249Z,8.20
2022-12-06T04:57:52.979Z,8.20
2022-12-06T04:58:55.158Z,8.20
2022-12-06T04:59:57.027Z,8.30
2022-12-06T05:01:00.206Z,8.30
2022-12-06T05:02:02.035Z,8.20
2022-12-06T05:03:03.923Z,8.30
2022-12-06T05:04:06.255Z,8.30
2022-12-06T05:05:08.391Z,8.20
2022-12-06T05:06:10.576Z,8.20
2022-12-06T05:07:12.894Z,8.20
2022-12-06T05:08:14.691Z,8.20
2022-12-06T05:09:16.631Z,8.20
2022-12-06T05:10:18.525Z,8.00
2022-12-06T05:11:20.797Z,8.30
2022-12-06T05:12:22.748Z,8.00
2022-12-06T05:13:24.467Z,8.50
2022-12-06T05:14:26.815Z,8.30
2022-12-06T05:15:30.749Z,8.30
2022-12-06T05:16:34.948Z,8.30
2022-12-06T05:17:36.796Z,8.30
2022-12-06T05:18:38.956Z,8.30
2022-12-06T05:19:40.678Z,8.30
2022-12-06T05:20:42.467Z,8.30
2022-12-06T05:22:27.763Z,8.30
2022-12-06T05:23:31.139Z,8.30
2022-12-06T05:24:33.022Z,8.30
2022-12-06T05:25:34.749Z,8.30
2022-12-06T05:26:36.900Z,8.20
2022-12-06T05:27:38.841Z,8.20
2022-12-06T05:28:41.330Z,8.20
2022-12-06T05:29:43.252Z,8.20
2022-12-06T05:30:45.607Z,8.20
2022-12-06T05:31:47.867Z,8.20
2022-12-06T05:32:55.419Z,8.20
2022-12-06T05:33:58.665Z,8.30
2022-12-06T05:35:00.400Z,8.30
2022-12-06T05:36:20.270Z,8.30
2022-12-06T05:37:22.022Z,8.30
2022-12-06T05:38:25.109Z,8.30
2022-12-06T05:39:26.956Z,8.30
2022-12-06T05:40:29.841Z,8.30
2022-12-06T05:41:31.670Z,8.30
2022-12-06T05:42:33.745Z,8.40
2022-12-06T05:43:35.766Z,8.40
2022-12-06T05:44:37.507Z,8.40
2022-12-06T05:45:41.161Z,8.40
2022-12-06T05:46:42.971Z,8.40
2022-12-06T05:47:44.750Z,8.40
2022-12-06T05:48:46.937Z,8.40
2022-12-06T05:49:49.577Z,8.40
2022-12-06T05:50:54.723Z,8.40
2022-12-06T05:52:01.168Z,8.40
2022-12-06T05:53:09.084Z,8.50
2022-12-06T05:54:12.824Z,8.40
2022-12-06T05:55:15.282Z,8.50
2022-12-06T05:56:17.163Z,8.50
2022-12-06T05:57:19.103Z,8.50
2022-12-06T05:58:21.187Z,8.50
2022-12-06T05:59:22.935Z,8.50
2022-12-06T06:00:25.089Z,8.50
2022-12-06T06:01:27.023Z,8.50
2022-12-06T06:02:30.826Z,8.50
2022-12-06T06:03:33.120Z,8.50
2022-12-06T06:04:38.268Z,8.50
2022-12-06T06:05:47.157Z,8.40
2022-12-06T06:06:49.546Z,8.50
2022-12-06T06:09:09.275Z,8.50
2022-12-06T06:10:12.761Z,8.50
2022-12-06T06:11:14.718Z,8.50
2022-12-06T06:12:16.794Z,8.50
2022-12-06T06:13:21.637Z,8.50
2022-12-06T06:14:23.812Z,8.50
2022-12-06T06:15:25.859Z,8.50
2022-12-06T06:16:29.207Z,8.50
2022-12-06T06:17:31.086Z,8.50
2022-12-06T06:18:32.844Z,8.50
2022-12-06T06:19:36.574Z,8.50
2022-12-06T06:20:40.822Z,8.50
2022-12-06T06:21:42.627Z,8.50
2022-12-06T06:22:45.927Z,8.50
2022-12-06T06:23:48.387Z,8.50
2022-12-06T06:24:52.097Z,8.50
2022-12-06T06:25:54.566Z,8.50
2022-12-06T06:26:56.605Z,8.50
2022-12-06T06:27:58.306Z,8.50
2022-12-06T06:29:00.040Z,8.50
2022-12-06T06:30:02.133Z,8.50
2022-12-06T06:31:06.127Z,8.50
2022-12-06T06:32:07.906Z,8.50
2022-12-06T06:33:10.468Z,8.50
2022-12-06T06:34:12.425Z,8.50
2022-12-06T06:35:14.222Z,8.50
2022-12-06T06:36:16.275Z,8.50
2022-12-06T06:37:18.015Z,8.50
2022-12-06T06:38:19.789Z,8.50
2022-12-06T06:39:21.525Z,8.50
2022-12-06T06:40:23.352Z,8.50
2022-12-06T06:41:25.496Z,8.50
2022-12-06T06:42:27.577Z,8.50
2022-12-06T06:43:30.433Z,8.50
2022-12-06T06:44:33.782Z,8.50
2022-12-06T06:45:35.938Z,8.40
2022-12-06T06:46:39.665Z,8.40
2022-12-06T06:47:41.612Z,8.40
2022-12-06T06:48:43.711Z,8.40
2022-12-06T06:49:45.430Z,8.40
2022-12-06T06:50:49.542Z,8.40
2022-12-06T06:51:54.549Z,8.40
2022-12-06T06:52:56.438Z,8.40
2022-12-06T06:53:58.959Z,8.50
2022-12-06T06:55:00.648Z,8.50
2022-12-06T06:56:02.724Z,8.50
2022-12-06T06:57:04.651Z,8.40
2022-12-06T06:58:06.455Z,8.50
2022-12-06T06:59:08.407Z,8.40
2022-12-06T07:00:10.785Z,8.50
2022-12-06T07:01:22.276Z,8.40
2022-12-06T07:02:24.161Z,8.40
2022-12-06T07:03:26.749Z,8.40
2022-12-06T07:04:28.450Z,8.50
2022-12-06T07:05:30.295Z,8.50
2022-12-06T07:06:32.317Z,8.50
2022-12-06T07:07:36.704Z,8.50
2022-12-06T07:08:40.235Z,8.50
2022-12-06T07:09:42.069Z,8.50
2022-12-06T07:10:48.951Z,8.50
2022-12-06T07:11:50.607Z,8.50
2022-12-06T07:12:57.208Z,8.50
2022-12-06T07:13:59.051Z,8.50
2022-12-06T07:15:01.120Z,8.50
2022-12-06T07:16:08.320Z,8.50
2022-12-06T07:17:10.173Z,8.50
2022-12-06T07:18:11.940Z,8.50
2022-12-06T07:19:13.968Z,8.50
2022-12-06T07:20:15.824Z,8.50
2022-12-06T07:21:18.461Z,8.50
2022-12-06T07:22:31.994Z,8.50
2022-12-06T07:23:35.423Z,8.50
2022-12-06T07:24:42.331Z,8.50
2022-12-06T07:25:46.219Z,8.50
2022-12-06T07:26:47.980Z,8.50
2022-12-06T07:27:49.906Z,8.50
2022-12-06T07:28:51.884Z,8.50
2022-12-06T07:29:53.575Z,8.50
2022-12-06T07:30:55.462Z,8.50
2022-12-06T07:31:57.339Z,8.50
2022-12-06T07:32:59.376Z,8.50
2022-12-06T07:34:02.431Z,8.50
2022-12-06T07:35:05.340Z,8.50
2022-12-06T07:36:12.415Z,8.50
2022-12-06T07:37:15.389Z,8.50
2022-12-06T07:38:17.057Z,8.50
2022-12-06T07:39:19.090Z,8.40
2022-12-06T07:40:41.199Z,8.40
2022-12-06T07:42:03.249Z,8.40
2022-12-06T07:43:23.383Z,8.40
2022-12-06T07:44:43.642Z,8.40
2022-12-06T07:45:45.903Z,8.40
2022-12-06T07:46:48.699Z,8.30
2022-12-06T07:47:50.570Z,8.30
2022-12-06T07:48:52.762Z,8.30
2022-12-06T07:49:54.513Z,8.30
2022-12-06T07:50:56.271Z,8.30
2022-12-06T07:51:58.431Z,8.30
2022-12-06T07:53:03.103Z,8.20
2022-12-06T07:54:05.615Z,8.30
2022-12-06T07:55:08.494Z,8.30
2022-12-06T07:56:12.035Z,8.40
2022-12-06T07:57:14.151Z,8.40
2022-12-06T07:58:16.058Z,8.40
2022-12-06T07:59:18.006Z,8.50
2022-12-06T08:00:20.329Z,8.50
2022-12-06T08:01:23.436Z,8.50
2022-12-06T08:02:26.988Z,8.50
2022-12-06T08:03:28.985Z,8.60
2022-12-06T08:04:31.346Z,8.60
2022-12-06T08:05:33.176Z,8.60
2022-12-06T08:06:36.506Z,8.60
2022-12-06T08:07:39.071Z,8.60
2022-12-06T08:08:40.866Z,8.60
2022-12-06T08:09:42.618Z,8.60
2022-12-06T08:10:47.173Z,8.60
2022-12-06T08:11:49.211Z,8.70
2022-12-06T08:12:51.273Z,8.70
2022-12-06T08:13:53.053Z,8.70
2022-12-06T08:14:59.485Z,8.70
2022-12-06T08:16:08.864Z,8.70
2022-12-06T08:17:10.919Z,8.60
2022-12-06T08:18:12.771Z,8.60
2022-12-06T08:19:15.562Z,8.60
2022-12-06T08:20:17.348Z,8.60
2022-12-06T08:21:19.159Z,8.60
2022-12-06T08:22:21.274Z,8.60
2022-12-06T08:23:23.078Z,8.60
2022-12-06T08:24:25.216Z,8.70
2022-12-06T08:25:26.956Z,8.70
2022-12-06T08:26:28.751Z,8.70
2022-12-06T08:27:30.490Z,8.70
2022-12-06T08:28:34.820Z,8.70
2022-12-06T08:29:36.796Z,8.70
2022-12-06T08:30:42.175Z,8.70
2022-12-06T08:31:45.699Z,8.70
2022-12-06T08:32:47.681Z,8.70
2022-12-06T08:33:50.304Z,8.70
2022-12-06T08:34:52.158Z,8.70
2022-12-06T08:35:56.153Z,8.70
2022-12-06T08:37:03.004Z,8.70
2022-12-06T08:38:05.490Z,8.70
2022-12-06T08:39:08.262Z,8.70
2022-12-06T08:40:10.373Z,8.80
2022-12-06T08:41:31.212Z,8.70
2022-12-06T08:42:32.944Z,8.80
2022-12-06T08:43:34.765Z,8.80
2022-12-06T08:44:37.553Z,8.80
2022-12-06T08:45:39.843Z,8.80
2022-12-06T08:46:42.439Z,8.80
2022-12-06T08:47:44.211Z,8.80
2022-12-06T08:48:46.606Z,8.90
2022-12-06T08:49:50.536Z,8.80
2022-12-06T08:50:52.466Z,8.80
2022-12-06T08:51:54.994Z,8.90
2022-12-06T08:52:56.831Z,8.80
2022-12-06T08:53:58.690Z,8.80
2022-12-06T08:55:00.386Z,8.80
2022-12-06T08:56:02.970Z,8.80
2022-12-06T08:57:05.268Z,8.80
2022-12-06T08:58:07.426Z,8.80
2022-12-06T08:59:09.409Z,8.80
2022-12-06T09:00:12.071Z,8.80
2022-12-06T09:01:16.837Z,8.80
2022-12-06T09:02:18.769Z,8.80
2022-12-06T09:03:20.718Z,8.80
2022-12-06T09:04:23.561Z,8.90
2022-12-06T09:05:25.688Z,8.90
2022-12-06T09:06:28.338Z,8.90
2022-12-06T09:07:30.042Z,8.90
2022-12-06T09:08:31.783Z,8.90
2022-12-06T09:09:33.557Z,8.90
2022-12-06T09:10:35.285Z,8.80
2022-12-06T09:11:38.669Z,8.90
2022-12-06T09:12:40.459Z,8.80
2022-12-06T09:13:42.289Z,8.90
2022-12-06T09:14:44.406Z,8.90
2022-12-06T09:15:46.212Z,8.90
2022-12-06T09:16:49.378Z,8.90
2022-12-06T09:17:51.095Z,8.90
2022-12-06T09:18:53.154Z,8.90
2022-12-06T09:19:55.032Z,8.90
2022-12-06T09:20:56.872Z,8.90
2022-12-06T09:21:58.922Z,8.90
2022-12-06T09:23:00.679Z,8.90
2022-12-06T09:24:02.870Z,8.90
2022-12-06T09:25:04.812Z,8.90
2022-12-06T09:26:07.488Z,8.90
2022-12-06T09:27:09.391Z,8.90
2022-12-06T09:28:12.672Z,8.90
2022-12-06T09:29:16.127Z,8.80
2022-12-06T09:30:18.046Z,8.90
2022-12-06T09:31:20.309Z,8.90
2022-12-06T09:32:24.680Z,8.90
2022-12-06T09:33:26.521Z,8.90
2022-12-06T09:34:28.358Z,8.90
2022-12-06T09:35:30.831Z,8.90
2022-12-06T09:36:32.928Z,8.90
2022-12-06T09:37:35.002Z,8.90
2022-12-06T09:38:38.918Z,8.90
2022-12-06T09:39:46.271Z,8.90
2022-12-06T09:41:20.239Z,8.80
2022-12-06T09:42:56.440Z,8.70
2022-12-06T09:44:01.090Z,8.70
2022-12-06T09:45:13.110Z,8.70
2022-12-06T09:46:29.257Z,8.60
2022-12-06T09:47:40.513Z,8.60
2022-12-06T09:48:58.718Z,8.60
2022-12-06T09:50:12.613Z,8.50
2022-12-06T09:51:42.871Z,8.50
2022-12-06T09:53:03.518Z,8.40
2022-12-06T09:54:28.331Z,8.40
2022-12-06T09:55:43.250Z,8.30
2022-12-06T09:57:42.140Z,8.30
2022-12-06T09:59:01.995Z,8.30
2022-12-06T10:00:11.736Z,8.30
2022-12-06T10:01:31.960Z,8.20
2022-12-06T10:02:56.006Z,8.20
2022-12-06T10:04:15.838Z,8.30
2022-12-06T10:05:25.387Z,8.30
2022-12-06T10:06:37.791Z,8.30
2022-12-06T10:08:26.243Z,8.40
2022-12-06T10:09:52.578Z,8.40
2022-12-06T10:11:08.530Z,8.30
2022-12-06T10:12:36.055Z,8.40
2022-12-06T10:14:15.697Z,8.30
2022-12-06T10:15:29.025Z,8.30
2022-12-06T10:16:56.486Z,8.30
2022-12-06T10:18:20.555Z,8.30
2022-12-06T10:19:50.389Z,8.20
2022-12-06T10:21:01.078Z,8.10
2022-12-06T10:22:36.932Z,8.00
2022-12-06T10:23:46.964Z,7.80
2022-12-06T10:25:23.842Z,8.00
2022-12-06T10:26:53.716Z,8.00
2022-12-06T10:28:10.805Z,7.90
2022-12-06T10:29:18.806Z,7.90
2022-12-06T10:30:20.822Z,7.90
2022-12-06T10:31:54.623Z,7.60
2022-12-06T10:33:28.810Z,7.90
2022-12-06T10:34:49.051Z,7.90
2022-12-06T10:36:00.390Z,7.90
2022-12-06T10:37:31.745Z,7.80
2022-12-06T10:38:41.662Z,8.00
2022-12-06T10:39:53.289Z,7.70
2022-12-06T10:41:03.693Z,7.70
2022-12-06T10:42:15.615Z,7.70
2022-12-06T10:43:28.985Z,7.70
2022-12-06T10:44:39.807Z,7.60
2022-12-06T10:46:08.509Z,7.60
2022-12-06T10:47:13.285Z,7.60
2022-12-06T10:48:29.643Z,7.60
2022-12-06T10:49:58.237Z,7.60
2022-12-06T10:51:12.503Z,7.60
2022-12-06T10:52:29.191Z,7.60
2022-12-06T10:53:35.214Z,7.60
2022-12-06T10:54:51.245Z,7.60
2022-12-06T10:56:04.373Z,7.60
2022-12-06T10:57:14.501Z,7.60
2022-12-06T10:58:30.206Z,7.50
2022-12-06T10:59:38.476Z,7.60
2022-12-06T11:00:57.329Z,7.50
2022-12-06T11:02:02.992Z,7.50
2022-12-06T11:03:37.149Z,7.50
2022-12-06T11:04:41.303Z,7.50
2022-12-06T11:05:54.569Z,7.40
2022-12-06T11:07:02.110Z,7.40
2022-12-06T11:08:15.697Z,7.50
2022-12-06T11:09:26.041Z,7.40
2022-12-06T11:10:31.618Z,7.50
2022-12-06T11:11:36.709Z,7.50
2022-12-06T11:12:39.443Z,7.50
2022-12-06T11:13:41.303Z,7.50
2022-12-06T11:14:47.841Z,7.50
2022-12-06T11:16:04.504Z,7.50
2022-12-06T11:17:23.697Z,7.60
2022-12-06T11:18:28.118Z,7.50
2022-12-06T11:19:45.687Z,7.50
2022-12-06T11:21:05.004Z,7.60
2022-12-06T11:22:42.399Z,7.60
2022-12-06T11:24:05.203Z,7.70
2022-12-06T11:25:12.136Z,7.70
2022-12-06T11:26:39.120Z,7.70
2022-12-06T11:27:54.103Z,7.70
2022-12-06T11:29:06.005Z,7.70
2022-12-06T11:30:20.266Z,7.70
2022-12-06T11:31:31.423Z,7.70
2022-12-06T11:32:33.678Z,7.70
2022-12-06T11:33:35.654Z,7.70
2022-12-06T11:34:48.579Z,7.70
2022-12-06T11:35:50.568Z,7.70
2022-12-06T11:37:00.062Z,7.70
2022-12-06T11:38:05.796Z,7.70
2022-12-06T11:39:07.725Z,7.70
2022-12-06T11:40:30.557Z,7.70
2022-12-06T11:41:36.796Z,7.70
2022-12-06T11:42:39.026Z,7.70
2022-12-06T11:43:41.287Z,7.80
2022-12-06T11:44:58.014Z,7.80
2022-12-06T11:45:59.858Z,7.80
2022-12-06T11:47:03.294Z,7.80
2022-12-06T11:48:26.165Z,7.80
2022-12-06T11:49:37.132Z,7.70
2022-12-06T11:50:39.483Z,7.70
2022-12-06T11:51:41.312Z,7.70
2022-12-06T11:52:52.969Z,7.70
2022-12-06T11:54:01.004Z,7.70
2022-12-06T11:55:18.064Z,7.80
2022-12-06T11:56:26.834Z,7.80
2022-12-06T11:57:59.125Z,7.80
2022-12-06T11:59:28.969Z,7.80
2022-12-06T12:00:31.750Z,7.80
2022-12-06T12:01:39.064Z,7.70
2022-12-06T12:02:42.738Z,7.80
2022-12-06T12:03:52.485Z,7.70
2022-12-06T12:04:54.492Z,7.80
2022-12-06T12:06:26.355Z,7.70
2022-12-06T12:07:28.311Z,7.70
2022-12-06T12:08:32.855Z,7.70
2022-12-06T12:10:03.316Z,7.70
2022-12-06T12:11:05.140Z,7.80
2022-12-06T12:12:15.641Z,7.80
2022-12-06T12:13:39.822Z,7.80
2022-12-06T12:14:47.915Z,7.80
2022-12-06T12:15:53.893Z,7.80
2022-12-06T12:17:03.990Z,7.80
2022-12-06T12:18:19.661Z,7.80
2022-12-06T12:19:31.053Z,7.80
2022-12-06T12:21:07.117Z,7.80
2022-12-06T12:22:35.409Z,7.60
2022-12-06T12:23:46.556Z,7.70
2022-12-06T12:26:21.752Z,7.70
2022-12-06T12:27:44.377Z,7.70
2022-12-06T12:29:24.852Z,7.60
2022-12-06T12:30:31.955Z,7.60
2022-12-06T12:31:59.786Z,7.50
2022-12-06T12:33:15.273Z,7.50
2022-12-06T12:34:26.609Z,7.40
2022-12-06T12:35:29.220Z,7.40
2022-12-06T12:36:33.175Z,7.40
2022-12-06T12:37:37.574Z,7.40
2022-12-06T12:39:01.371Z,7.40
2022-12-06T12:40:09.059Z,7.40
2022-12-06T12:41:24.117Z,7.40
2022-12-06T12:42:28.819Z,7.40
2022-12-06T12:43:33.564Z,7.30
2022-12-06T12:46:14.942Z,7.30
2022-12-06T12:47:20.118Z,7.30
2022-12-06T12:48:26.893Z,7.30
2022-12-06T12:49:39.563Z,7.30
2022-12-06T12:50:53.713Z,7.30
2022-12-06T12:51:57.246Z,7.30
2022-12-06T12:53:07.800Z,7.30
2022-12-06T12:54:40.669Z,7.30
2022-12-06T12:55:42.914Z,7.40
2022-12-06T12:56:45.384Z,7.40
2022-12-06T12:58:00.375Z,7.40
2022-12-06T12:59:13.919Z,7.40
2022-12-06T13:00:18.158Z,7.40
2022-12-06T13:01:44.356Z,7.40
2022-12-06T13:02:56.613Z,7.40
2022-12-06T13:04:06.413Z,7.40
2022-12-06T13:05:44.913Z,7.60
2022-12-06T13:06:48.362Z,7.50
2022-12-06T13:07:53.660Z,7.50
2022-12-06T13:09:00.467Z,7.60
2022-12-06T13:10:12.835Z,7.60
2022-12-06T13:11:15.014Z,7.60
2022-12-06T13:12:38.927Z,7.60
2022-12-06T13:13:44.765Z,7.60
2022-12-06T13:15:06.939Z,7.70
2022-12-06T13:16:14.998Z,7.50
2022-12-06T13:17:19.099Z,7.50
2022-12-06T13:18:46.817Z,7.50
2022-12-06T13:19:53.552Z,7.50
2022-12-06T13:21:22.829Z,7.40
2022-12-06T13:22:28.897Z,7.40
2022-12-06T13:23:36.519Z,7.40
2022-12-06T13:24:40.141Z,7.40
2022-12-06T13:26:05.864Z,7.40
2022-12-06T13:27:17.935Z,7.40
2022-12-06T13:28:25.842Z,7.40
2022-12-06T13:29:28.049Z,7.30
2022-12-06T13:30:31.531Z,7.30
2022-12-06T13:31:38.649Z,7.30
2022-12-06T13:32:59.709Z,7.30
2022-12-06T13:34:14.961Z,7.30
2022-12-06T13:35:35.260Z,7.30
2022-12-06T13:36:37.274Z,7.40
2022-12-06T13:37:52.324Z,7.40
2022-12-06T13:38:56.136Z,7.30
2022-12-06T13:39:58.156Z,7.40
2022-12-06T13:41:02.165Z,7.40
2022-12-06T13:42:19.819Z,7.40
2022-12-06T13:43:24.944Z,7.40
2022-12-06T13:44:51.416Z,7.50
2022-12-06T13:45:56.313Z,7.50
2022-12-06T13:47:26.989Z,7.50
2022-12-06T13:48:35.130Z,7.60
2022-12-06T13:49:48.989Z,7.60
2022-12-06T13:50:58.979Z,7.60
2022-12-06T13:52:01.196Z,7.60
2022-12-06T13:53:04.167Z,7.60
2022-12-06T13:54:21.799Z,7.60
2022-12-06T13:55:30.792Z,7.60
2022-12-06T13:56:40.619Z,7.70
2022-12-06T13:57:42.394Z,7.70
2022-12-06T13:58:51.530Z,7.60
2022-12-06T13:59:53.691Z,7.60
2022-12-06T14:00:58.062Z,7.60
2022-12-06T14:02:01.021Z,7.60
2022-12-06T14:03:25.828Z,7.60
2022-12-06T14:08:13.393Z,7.70
2022-12-06T14:09:15.426Z,7.70
2022-12-06T14:10:17.274Z,7.70
2022-12-06T14:11:27.915Z,7.70
2022-12-06T14:12:29.820Z,7.70
2022-12-06T14:13:31.537Z,7.70
2022-12-06T14:14:33.937Z,7.70
2022-12-06T14:15:40.155Z,7.70
2022-12-06T14:16:46.617Z,7.70
2022-12-06T14:18:11.009Z,7.70
2022-12-06T14:19:28.861Z,7.70
2022-12-06T14:20:31.914Z,7.70
2022-12-06T14:21:40.754Z,7.70
2022-12-06T14:22:47.657Z,7.70
2022-12-06T14:23:49.870Z,7.80
2022-12-06T14:25:08.517Z,7.80
2022-12-06T14:26:23.206Z,7.80
2022-12-06T14:27:28.143Z,7.80
2022-12-06T14:28:35.804Z,7.80
2022-12-06T14:29:37.635Z,7.90
2022-12-06T14:30:39.793Z,7.80
2022-12-06T14:31:41.881Z,7.80
2022-12-06T14:32:58.484Z,7.80
2022-12-06T14:34:00.656Z,7.70
2022-12-06T14:35:11.276Z,7.70
2022-12-06T14:36:24.843Z,7.70
2022-12-06T14:37:26.624Z,7.70
2022-12-06T14:38:31.494Z,7.60
2022-12-06T14:39:33.373Z,7.60
2022-12-06T14:40:57.899Z,7.60
2022-12-06T14:42:42.675Z,7.50
2022-12-06T14:43:47.407Z,7.50
2022-12-06T14:44:52.678Z,7.40
2022-12-06T14:45:57.688Z,7.40
2022-12-06T14:47:00.398Z,7.40
2022-12-06T14:48:03.925Z,7.30
2022-12-06T14:49:24.336Z,7.40
2022-12-06T14:50:33.219Z,7.30
2022-12-06T14:51:40.485Z,7.50
2022-12-06T14:52:58.260Z,7.30
2022-12-06T14:54:17.761Z,7.30
2022-12-06T14:55:20.658Z,7.30
2022-12-06T14:56:27.560Z,7.30
2022-12-06T14:57:32.179Z,7.30
2022-12-06T14:58:41.293Z,7.30
2022-12-06T15:01:15.041Z,7.30
2022-12-06T15:02:26.458Z,7.30
2022-12-06T15:03:33.343Z,7.30
2022-12-06T15:04:38.620Z,7.30
2022-12-06T15:05:43.977Z,7.10
2022-12-06T15:06:53.906Z,7.30
2022-12-06T15:07:55.662Z,7.30
2022-12-06T15:08:57.384Z,7.30
2022-12-06T15:10:30.820Z,7.30
2022-12-06T15:11:55.046Z,7.30
2022-12-06T15:13:08.725Z,7.20
2022-12-06T15:14:39.386Z,7.20
2022-12-06T15:15:46.137Z,7.20